Time;durP1;ratioP1;P1;durP2;ratioP2;P2;SDS_P1;SDS_P2;PMS_P1;PMS_P2;Temp;Humidity;BMP_temperature;BMP_pressure;BME280_temperature;BME280_humidity;BME280_pressure;Samples;Min_cycle;Max_cycle;Signal;HPM_P1;HPM_P2
2023/04/11 00:00:16;;;;;;;7.78;2.60;;;8.50;99.90;;;;;;5014441;28;20061;-58
2023/04/11 00:02:42;;;;;;;7.40;2.50;;;8.40;99.90;;;;;;5009619;28;20046;-54
2023/04/11 00:05:08;;;;;;;4.85;2.15;;;8.30;99.90;;;;;;5009973;28;20041;-58
2023/04/11 00:07:34;;;;;;;4.65;1.77;;;8.30;99.90;;;;;;5009590;28;20133;-53
2023/04/11 00:10:01;;;;;;;5.15;1.42;;;8.20;99.90;;;;;;5008039;28;20430;-58
2023/04/11 00:12:26;;;;;;;3.67;1.27;;;8.10;99.90;;;;;;5009742;28;20080;-57
2023/04/11 00:14:52;;;;;;;5.22;1.23;;;8.20;99.90;;;;;;5008666;28;20504;-59
2023/04/11 00:17:19;;;;;;;6.28;1.40;;;8.40;99.90;;;;;;5009291;28;20483;-53
2023/04/11 00:19:45;;;;;;;5.35;1.45;;;8.10;99.90;;;;;;5009711;28;20042;-59
2023/04/11 00:22:12;;;;;;;5.13;1.67;;;8.10;99.90;;;;;;5008680;28;20501;-59
2023/04/11 00:24:38;;;;;;;7.40;2.13;;;8.10;99.90;;;;;;5009026;28;20049;-50
2023/04/11 00:27:05;;;;;;;5.47;1.55;;;7.90;99.90;;;;;;5009082;28;20045;-58
2023/04/11 00:29:32;;;;;;;8.32;1.83;;;8.10;99.90;;;;;;5008429;28;20045;-55
2023/04/11 00:31:59;;;;;;;5.90;1.48;;;7.80;99.90;;;;;;5009399;28;20397;-56
2023/04/11 00:34:26;;;;;;;4.22;1.63;;;7.90;99.90;;;;;;5008660;28;20061;-59
2023/04/11 00:36:52;;;;;;;7.97;1.90;;;7.90;99.90;;;;;;5008177;28;20749;-59
2023/04/11 00:39:19;;;;;;;5.53;1.42;;;7.80;99.90;;;;;;5008937;28;20034;-57
2023/04/11 00:41:45;;;;;;;8.15;1.92;;;7.70;99.90;;;;;;5008756;28;20111;-56
2023/04/11 00:44:12;;;;;;;8.20;1.70;;;7.60;99.90;;;;;;5008219;28;20037;-57
2023/04/11 00:46:41;;;;;;;9.45;2.17;;;7.50;99.90;;;;;;5008873;28;20417;-54
2023/04/11 00:49:06;;;;;;;6.05;1.58;;;7.50;99.90;;;;;;5008680;28;20034;-59
2023/04/11 00:51:32;;;;;;;6.30;1.67;;;7.50;99.90;;;;;;5008798;28;20485;-55
2023/04/11 00:54:00;;;;;;;8.13;1.60;;;7.50;99.90;;;;;;5008077;28;20038;-59
2023/04/11 00:56:26;;;;;;;5.72;1.50;;;7.40;99.90;;;;;;5007020;28;20046;-54
2023/04/11 00:58:51;;;;;;;6.85;1.67;;;7.30;99.90;;;;;;5019125;28;20049;-57
2023/04/11 01:01:18;;;;;;;5.10;1.40;;;7.30;99.90;;;;;;5008865;28;20107;-57
2023/04/11 01:03:44;;;;;;;5.13;1.50;;;7.30;99.90;;;;;;5008650;28;20046;-56
2023/04/11 01:08:49;;;;;;;5.75;1.50;;;7.20;99.90;;;;;;5014630;22;20065;-56
2023/04/11 01:11:18;;;;;;;5.78;1.52;;;7.20;99.90;;;;;;5027085;28;20200;-51
2023/04/11 01:13:45;;;;;;;5.47;1.52;;;7.30;99.90;;;;;;5013093;28;20050;-61
2023/04/11 01:16:11;;;;;;;8.68;1.60;;;7.40;99.90;;;;;;5008131;28;20041;-66
2023/04/11 01:18:37;;;;;;;5.82;1.52;;;7.30;99.90;;;;;;5007946;28;20476;-55
2023/04/11 01:21:03;;;;;;;5.47;1.70;;;7.30;99.90;;;;;;5007978;28;20085;-66
2023/04/11 01:23:29;;;;;;;6.30;1.70;;;7.30;99.90;;;;;;5008440;28;20073;-65
2023/04/11 01:25:55;;;;;;;6.47;1.85;;;7.20;99.90;;;;;;5006854;28;20467;-65
2023/04/11 01:28:21;;;;;;;5.90;1.77;;;7.30;99.90;;;;;;5006765;28;20053;-64
2023/04/11 01:30:47;;;;;;;8.73;1.85;;;7.20;99.90;;;;;;5006514;28;20508;-52
2023/04/11 01:33:14;;;;;;;8.32;1.33;;;7.20;99.90;;;;;;5007219;28;20053;-66
2023/04/11 01:35:40;;;;;;;5.82;1.92;;;7.10;99.90;;;;;;5006914;28;20045;-65
2023/04/11 01:38:06;;;;;;;8.00;1.73;;;7.20;99.90;;;;;;5007139;28;20106;-68
2023/04/11 01:40:32;;;;;;;5.05;1.55;;;7.30;99.90;;;;;;5007653;28;20507;-60
2023/04/11 01:43:00;;;;;;;7.03;1.60;;;7.30;99.90;;;;;;5006924;28;20041;-61
2023/04/11 01:45:27;;;;;;;8.90;2.08;;;7.40;99.90;;;;;;5006738;28;20151;-67
2023/04/11 01:47:53;;;;;;;10.13;1.48;;;7.30;99.90;;;;;;5007202;28;20124;-63
2023/04/11 01:50:22;;;;;;;6.30;2.03;;;7.20;99.90;;;;;;5007047;28;20046;-50
2023/04/11 01:52:48;;;;;;;7.18;1.83;;;7.10;99.90;;;;;;5005729;28;20045;-63
2023/04/11 01:55:14;;;;;;;8.85;2.15;;;7.50;99.90;;;;;;5006840;28;20050;-53
2023/04/11 01:57:40;;;;;;;12.38;2.50;;;7.00;99.90;;;;;;5010781;28;20041;-61
2023/04/11 02:00:09;;;;;;;6.88;1.75;;;6.90;99.90;;;;;;5013418;28;20046;-65
2023/04/11 02:02:36;;;;;;;10.13;2.03;;;6.90;99.90;;;;;;5007518;28;20503;-63
2023/04/11 02:05:02;;;;;;;8.57;2.05;;;6.90;99.90;;;;;;5007278;28;20125;-56
2023/04/11 02:07:28;;;;;;;6.60;1.80;;;6.90;99.90;;;;;;5006709;28;20061;-67
2023/04/11 02:09:55;;;;;;;10.18;2.58;;;6.90;99.90;;;;;;5007448;28;20053;-67
2023/04/11 02:12:20;;;;;;;7.78;2.22;;;6.80;99.90;;;;;;5007292;28;20041;-65
2023/04/11 02:14:46;;;;;;;11.88;2.72;;;6.70;99.90;;;;;;5006032;28;20038;-61
2023/04/11 02:17:12;;;;;;;8.68;2.08;;;6.80;99.90;;;;;;5022024;28;20038;-49
2023/04/11 02:19:40;;;;;;;9.32;1.92;;;6.80;99.90;;;;;;5006946;28;20060;-67
2023/04/11 02:22:07;;;;;;;12.88;2.15;;;6.90;99.90;;;;;;5007368;28;20053;-65
2023/04/11 02:24:33;;;;;;;8.90;2.05;;;6.80;99.90;;;;;;5007354;28;20085;-64
2023/04/11 02:27:00;;;;;;;5.20;1.67;;;6.90;99.90;;;;;;5005483;28;20049;-67
2023/04/11 02:29:27;;;;;;;12.98;2.05;;;6.90;99.90;;;;;;5006269;28;20421;-67
2023/04/11 02:31:52;;;;;;;12.13;2.53;;;6.90;99.90;;;;;;5006629;28;20030;-64
2023/04/11 02:34:18;;;;;;;9.90;2.33;;;6.90;99.90;;;;;;5007400;28;20081;-67
2023/04/11 02:36:44;;;;;;;7.93;2.08;;;6.90;99.90;;;;;;5007031;28;20084;-63
2023/04/11 02:39:11;;;;;;;9.70;2.33;;;7.10;99.90;;;;;;5006282;28;20046;-67
2023/04/11 02:41:41;;;;;;;7.47;2.28;;;7.00;99.90;;;;;;5006517;28;20046;-63
2023/04/11 02:44:10;;;;;;;6.43;1.85;;;7.10;99.90;;;;;;5012773;28;20515;-68
2023/04/11 02:46:36;;;;;;;11.75;2.20;;;7.10;99.90;;;;;;5024225;28;20115;-59
2023/04/11 02:49:02;;;;;;;8.35;1.77;;;7.10;99.90;;;;;;5026047;28;20037;-67
2023/04/11 02:51:28;;;;;;;6.45;2.20;;;7.00;99.90;;;;;;5026086;28;20085;-64
2023/04/11 02:53:54;;;;;;;8.52;1.80;;;6.90;99.90;;;;;;5026115;28;20084;-66
2023/04/11 02:56:20;;;;;;;9.00;2.00;;;7.80;99.90;;;;;;5025688;28;20049;-53
2023/04/11 02:58:46;;;;;;;10.40;1.90;;;7.20;99.90;;;;;;5017281;28;20049;-64
2023/04/11 03:01:13;;;;;;;11.40;2.15;;;7.10;99.90;;;;;;5004645;28;20057;-53
2023/04/11 03:03:43;;;;;;;10.40;2.42;;;7.10;99.90;;;;;;5006313;28;20460;-59
2023/04/11 03:06:09;;;;;;;8.80;2.13;;;7.10;99.90;;;;;;5006456;28;20129;-68
2023/04/11 03:08:36;;;;;;;6.97;2.20;;;7.30;99.90;;;;;;5006210;28;20504;-61
2023/04/11 03:11:05;;;;;;;10.55;2.38;;;7.00;99.90;;;;;;5006338;28;20428;-65
2023/04/11 03:13:31;;;;;;;10.63;2.78;;;7.00;99.90;;;;;;5005390;28;20512;-66
2023/04/11 03:15:57;;;;;;;9.35;2.83;;;7.00;99.90;;;;;;5006681;28;20423;-64
2023/04/11 03:18:23;;;;;;;10.10;2.05;;;7.00;99.90;;;;;;5006506;28;20046;-63
2023/04/11 03:20:49;;;;;;;6.22;1.77;;;7.10;99.90;;;;;;5006476;28;20088;-65
2023/04/11 03:23:15;;;;;;;6.05;1.83;;;7.10;99.90;;;;;;5006406;28;20089;-62
2023/04/11 03:25:43;;;;;;;5.07;1.60;;;7.10;99.90;;;;;;5006411;28;20038;-66
2023/04/11 03:28:09;;;;;;;5.53;1.45;;;7.10;99.90;;;;;;5005449;28;20046;-61
2023/04/11 03:30:39;;;;;;;4.95;1.30;;;7.10;99.90;;;;;;5006254;28;20407;-62
2023/04/11 03:33:05;;;;;;;6.65;1.27;;;7.00;99.90;;;;;;5005898;28;20064;-55
2023/04/11 03:35:31;;;;;;;8.65;1.75;;;7.40;99.90;;;;;;5006246;28;20050;-63
2023/04/11 03:37:57;;;;;;;4.97;1.15;;;7.20;99.90;;;;;;5006485;28;20061;-63
2023/04/11 03:40:23;;;;;;;6.70;1.30;;;7.00;99.90;;;;;;5006310;28;20503;-58
2023/04/11 03:42:49;;;;;;;5.05;1.30;;;6.90;99.90;;;;;;5004843;28;20044;-62
2023/04/11 03:45:15;;;;;;;5.72;1.60;;;6.80;99.90;;;;;;5006313;28;20121;-55
2023/04/11 03:47:40;;;;;;;4.57;1.33;;;6.80;99.90;;;;;;5006316;28;20041;-62
2023/04/11 03:50:07;;;;;;;8.27;1.23;;;6.80;99.90;;;;;;5005945;28;20504;-52
2023/04/11 03:52:33;;;;;;;5.03;1.45;;;6.80;99.90;;;;;;5006260;28;20452;-60
2023/04/11 03:54:59;;;;;;;7.88;1.50;;;6.80;99.90;;;;;;5006288;28;20050;-49
2023/04/11 03:57:26;;;;;;;4.25;1.48;;;6.80;99.90;;;;;;5008116;28;20096;-55
2023/04/11 03:59:53;;;;;;;3.30;1.60;;;6.80;99.90;;;;;;5014122;28;20384;-64
2023/04/11 04:02:18;;;;;;;3.38;1.08;;;6.80;99.90;;;;;;5005743;28;20057;-56
2023/04/11 04:04:45;;;;;;;4.15;1.45;;;6.90;99.90;;;;;;5005911;28;20050;-66
2023/04/11 04:07:12;;;;;;;5.53;1.50;;;6.90;99.90;;;;;;5005212;28;20076;-65
2023/04/11 04:09:40;;;;;;;6.22;1.58;;;7.00;99.90;;;;;;5006173;28;20546;-63
2023/04/11 04:12:06;;;;;;;6.35;1.48;;;6.90;99.90;;;;;;5006891;28;20045;-67
2023/04/11 04:14:32;;;;;;;8.15;1.73;;;6.80;99.90;;;;;;5008046;28;20057;-63
2023/04/11 04:16:57;;;;;;;6.57;1.83;;;7.00;99.90;;;;;;5009694;28;20046;-66
2023/04/11 04:19:23;;;;;;;6.25;1.90;;;7.00;99.90;;;;;;5009190;28;20108;-58
2023/04/11 04:21:49;;;;;;;8.90;1.75;;;7.00;99.90;;;;;;5008624;28;20042;-67
2023/04/11 04:24:14;;;;;;;7.28;2.00;;;7.00;99.90;;;;;;5008940;28;20038;-57
2023/04/11 04:26:40;;;;;;;11.02;1.95;;;7.00;99.90;;;;;;5009342;28;20038;-63
2023/04/11 04:29:08;;;;;;;7.43;2.05;;;7.30;99.90;;;;;;5008647;28;20107;-66
2023/04/11 04:31:35;;;;;;;6.65;1.90;;;7.00;99.90;;;;;;5009121;28;20108;-51
2023/04/11 04:34:08;;;;;;;8.00;2.05;;;7.10;99.90;;;;;;5009377;28;20185;-67
2023/04/11 04:36:47;;;;;;;10.13;2.20;;;7.00;99.90;;;;;;5008879;28;20069;-50
2023/04/11 04:39:17;;;;;;;6.80;2.42;;;7.10;99.90;;;;;;5009157;28;20510;-61
2023/04/11 04:41:47;;;;;;;9.45;3.03;;;7.10;99.90;;;;;;5009465;28;20178;-61
2023/04/11 04:44:14;;;;;;;8.93;2.58;;;7.00;99.90;;;;;;5023037;28;20060;-67
2023/04/11 04:46:41;;;;;;;8.50;2.28;;;7.10;99.90;;;;;;5008500;28;20042;-60
2023/04/11 04:49:07;;;;;;;8.30;2.80;;;7.10;99.90;;;;;;5006740;28;20050;-63
2023/04/11 04:51:33;;;;;;;6.20;2.40;;;7.20;99.90;;;;;;5007965;28;20079;-66
2023/04/11 04:53:59;;;;;;;7.50;2.65;;;7.10;99.90;;;;;;5008149;28;20129;-62
2023/04/11 04:56:29;;;;;;;10.27;2.47;;;7.10;99.90;;;;;;4990908;28;20121;-67
2023/04/11 04:58:56;;;;;;;9.82;3.17;;;7.10;99.90;;;;;;5014893;28;20068;-65
2023/04/11 05:01:25;;;;;;;7.97;2.75;;;7.10;99.90;;;;;;5027594;28;20037;-62
2023/04/11 05:03:57;;;;;;;9.70;3.03;;;7.20;99.90;;;;;;5028405;28;20042;-63
2023/04/11 05:06:32;;;;;;;9.82;3.55;;;7.20;99.90;;;;;;5027761;28;20486;-63
2023/04/11 05:09:00;;;;;;;9.85;3.15;;;7.30;99.90;;;;;;5028615;28;20056;-68
2023/04/11 05:11:26;;;;;;;9.95;2.70;;;7.10;99.90;;;;;;5028114;28;20045;-62
2023/04/11 05:13:52;;;;;;;12.23;3.50;;;7.20;99.90;;;;;;5026798;28;20053;-64
2023/04/11 05:16:18;;;;;;;12.15;3.17;;;7.10;99.90;;;;;;5028041;28;20033;-68
2023/04/11 05:18:44;;;;;;;12.68;3.50;;;7.20;99.90;;;;;;5027722;28;20053;-65
2023/04/11 05:21:11;;;;;;;10.27;3.30;;;7.20;99.90;;;;;;5026692;28;20039;-64
2023/04/11 05:23:37;;;;;;;13.00;3.50;;;7.30;99.90;;;;;;5027446;28;20064;-61
2023/04/11 05:26:03;;;;;;;8.65;2.67;;;7.20;99.90;;;;;;5027882;28;20465;-68
2023/04/11 05:28:30;;;;;;;11.00;3.58;;;7.30;99.90;;;;;;5027336;28;20088;-66
2023/04/11 05:30:56;;;;;;;14.73;3.67;;;7.30;99.90;;;;;;5027722;28;20041;-64
2023/04/11 05:33:22;;;;;;;13.25;3.38;;;7.40;99.90;;;;;;5027666;28;20056;-66
2023/04/11 05:35:48;;;;;;;13.13;3.35;;;7.40;99.90;;;;;;5027573;28;20041;-64
2023/04/11 05:38:13;;;;;;;14.32;3.90;;;7.40;99.90;;;;;;5025670;28;20059;-65
2023/04/11 05:40:39;;;;;;;13.60;3.75;;;7.70;99.90;;;;;;5027650;28;20064;-64
2023/04/11 05:43:05;;;;;;;13.65;3.80;;;7.40;99.90;;;;;;5026598;28;20128;-52
2023/04/11 05:45:30;;;;;;;11.68;3.40;;;7.50;99.90;;;;;;5027585;28;20044;-64
2023/04/11 05:47:56;;;;;;;14.15;3.75;;;7.50;99.90;;;;;;5027265;28;20583;-58
2023/04/11 05:50:22;;;;;;;10.77;3.50;;;7.50;99.90;;;;;;5027061;28;20122;-63
2023/04/11 05:52:47;;;;;;;12.25;4.30;;;7.50;99.90;;;;;;5027097;28;20053;-63
2023/04/11 05:55:13;;;;;;;11.75;3.10;;;7.50;99.90;;;;;;5026965;28;20037;-56
2023/04/11 05:57:38;;;;;;;10.88;3.35;;;7.60;99.90;;;;;;5020007;28;20049;-66
2023/04/11 06:00:11;;;;;;;10.00;3.00;;;7.50;99.90;;;;;;5015058;28;20029;-50
2023/04/11 06:02:37;;;;;;;17.48;4.63;;;7.60;99.90;;;;;;5007348;28;20096;-66
2023/04/11 06:05:03;;;;;;;12.73;3.22;;;7.60;99.90;;;;;;5007595;28;20048;-58
2023/04/11 06:07:31;;;;;;;16.75;3.13;;;7.60;99.90;;;;;;5006767;28;20497;-67
2023/04/11 06:09:57;;;;;;;12.20;3.58;;;7.60;99.90;;;;;;5006786;28;20054;-60
2023/04/11 06:12:22;;;;;;;12.23;3.10;;;7.50;99.90;;;;;;5006418;28;20108;-69
2023/04/11 06:14:48;;;;;;;11.65;3.53;;;7.50;99.90;;;;;;5006863;28;20481;-66
2023/04/11 06:17:14;;;;;;;9.15;3.05;;;7.50;99.90;;;;;;5006573;28;20042;-67
2023/04/11 06:19:40;;;;;;;13.45;3.55;;;7.50;99.90;;;;;;5007005;28;20030;-66
2023/04/11 06:22:05;;;;;;;8.02;2.80;;;7.50;99.90;;;;;;5007525;28;20085;-55
2023/04/11 06:24:40;;;;;;;10.82;2.75;;;7.60;99.90;;;;;;5006844;28;20050;-61
2023/04/11 06:27:09;;;;;;;13.40;3.40;;;7.60;99.90;;;;;;5007069;28;20056;-65
2023/04/11 06:29:39;;;;;;;11.93;2.88;;;7.60;99.90;;;;;;5006100;28;20042;-64
2023/04/11 06:32:05;;;;;;;15.02;4.00;;;7.60;99.90;;;;;;5006722;28;20128;-63
2023/04/11 06:34:31;;;;;;;11.65;3.97;;;7.70;99.90;;;;;;5006049;28;20050;-64
2023/04/11 06:36:56;;;;;;;10.65;3.70;;;7.80;99.90;;;;;;5006767;28;20492;-65
2023/04/11 06:39:22;;;;;;;11.65;2.90;;;7.60;99.90;;;;;;5006195;28;20065;-53
2023/04/11 06:41:48;;;;;;;11.82;3.65;;;7.70;99.90;;;;;;5006026;28;20042;-52
2023/04/11 06:44:14;;;;;;;10.98;3.42;;;7.60;99.90;;;;;;5005400;28;20042;-67
2023/04/11 06:46:39;;;;;;;11.00;3.25;;;7.50;99.90;;;;;;5004539;28;20078;-62
2023/04/11 06:49:08;;;;;;;11.13;3.17;;;7.60;99.90;;;;;;5006005;28;20071;-65
2023/04/11 06:51:35;;;;;;;10.55;3.75;;;7.60;99.90;;;;;;5006254;28;20054;-64
2023/04/11 06:54:02;;;;;;;14.77;4.13;;;8.00;99.90;;;;;;5006169;28;20050;-60
2023/04/11 06:56:28;;;;;;;15.18;4.07;;;7.80;99.90;;;;;;5005784;28;20049;-55
2023/04/11 06:58:54;;;;;;;12.98;4.05;;;7.60;99.90;;;;;;5016378;28;20046;-67
2023/04/11 07:01:24;;;;;;;10.18;3.42;;;7.50;99.90;;;;;;5004736;28;20053;-65
2023/04/11 07:03:51;;;;;;;11.38;3.55;;;7.60;99.90;;;;;;5005832;28;20073;-66
2023/04/11 07:06:20;;;;;;;10.38;3.03;;;7.60;99.90;;;;;;5005407;28;20436;-60
2023/04/11 07:08:46;;;;;;;12.20;3.53;;;7.60;99.90;;;;;;5008880;28;20070;-51
2023/04/11 07:11:11;;;;;;;10.73;3.08;;;7.60;99.90;;;;;;5008327;28;20523;-59
2023/04/11 07:13:37;;;;;;;13.80;3.85;;;7.70;99.90;;;;;;5006566;28;20056;-65
2023/04/11 07:16:03;;;;;;;17.08;3.80;;;7.80;99.90;;;;;;5005099;28;20050;-63
2023/04/11 07:18:30;;;;;;;9.38;3.38;;;7.90;99.90;;;;;;5004843;28;20050;-49
2023/04/11 07:20:55;;;;;;;14.35;3.50;;;7.90;99.90;;;;;;5006196;28;20069;-61
2023/04/11 07:23:21;;;;;;;14.18;3.20;;;8.30;99.90;;;;;;5006209;28;20143;-62
2023/04/11 07:25:47;;;;;;;16.42;3.75;;;8.10;99.90;;;;;;5005904;28;20198;-67
2023/04/11 07:28:14;;;;;;;18.33;3.50;;;8.10;99.90;;;;;;5004367;28;20085;-67
2023/04/11 07:30:40;;;;;;;14.10;3.15;;;8.10;99.90;;;;;;5004679;28;20111;-53
2023/04/11 07:33:06;;;;;;;12.68;3.47;;;8.30;99.90;;;;;;5006241;28;20137;-64
2023/04/11 07:35:33;;;;;;;12.90;3.10;;;8.60;99.90;;;;;;5005514;28;20217;-61
2023/04/11 07:38:00;;;;;;;9.10;2.78;;;8.60;99.90;;;;;;5005970;28;20034;-60
2023/04/11 07:40:26;;;;;;;6.57;1.92;;;8.50;99.90;;;;;;5005990;28;20053;-65
2023/04/11 07:42:52;;;;;;;11.18;2.90;;;8.30;99.90;;;;;;5004844;28;20512;-59
2023/04/11 07:45:18;;;;;;;9.35;2.80;;;8.20;99.90;;;;;;5006242;28;20089;-63
2023/04/11 07:47:43;;;;;;;11.40;2.88;;;8.10;99.90;;;;;;5008734;28;20057;-60
2023/04/11 07:50:09;;;;;;;12.85;3.42;;;8.60;99.90;;;;;;5026134;28;20530;-63
2023/04/11 07:52:35;;;;;;;12.13;2.97;;;9.00;99.90;;;;;;5028814;28;20412;-70
2023/04/11 07:55:01;;;;;;;12.30;2.30;;;9.40;99.90;;;;;;5028815;28;20045;-60
2023/04/11 07:57:28;;;;;;;7.90;2.00;;;9.50;99.90;;;;;;5020600;28;20046;-67
2023/04/11 07:59:53;;;;;;;9.18;2.58;;;9.20;99.90;;;;;;5017540;28;20034;-62
2023/04/11 08:02:19;;;;;;;11.57;2.58;;;9.20;99.90;;;;;;5008710;28;20129;-66
2023/04/11 08:04:45;;;;;;;9.70;2.83;;;9.40;99.90;;;;;;5009019;28;20117;-68
2023/04/11 08:07:10;;;;;;;13.80;2.47;;;9.70;99.90;;;;;;5007628;28;20057;-62
2023/04/11 08:09:36;;;;;;;11.32;2.53;;;9.90;99.90;;;;;;5007912;28;20045;-66
2023/04/11 08:12:02;;;;;;;12.98;2.60;;;9.80;99.90;;;;;;5007980;28;20129;-68
2023/04/11 08:14:28;;;;;;;11.55;2.55;;;9.70;99.90;;;;;;5008041;28;20038;-69
2023/04/11 08:16:53;;;;;;;13.70;2.80;;;9.80;99.90;;;;;;5008602;28;20103;-68
2023/04/11 08:19:20;;;;;;;13.23;2.60;;;9.90;99.90;;;;;;5009026;28;20034;-64
2023/04/11 08:21:45;;;;;;;8.27;2.28;;;10.20;99.90;;;;;;5009143;28;20481;-67
2023/04/11 08:24:11;;;;;;;13.27;2.47;;;10.50;99.90;;;;;;5008980;28;20072;-56
2023/04/11 08:26:36;;;;;;;12.30;2.65;;;10.50;99.90;;;;;;5008752;28;20050;-64
2023/04/11 08:29:02;;;;;;;6.45;1.80;;;10.10;99.90;;;;;;5011502;28;20072;-62
2023/04/11 08:31:28;;;;;;;9.55;2.30;;;9.60;99.90;;;;;;5027618;28;20148;-57
2023/04/11 08:33:54;;;;;;;10.70;1.90;;;9.00;99.90;;;;;;5028090;28;20059;-59
2023/04/11 08:36:20;;;;;;;6.20;1.73;;;8.70;99.90;;;;;;5028539;28;20377;-57
2023/04/11 08:38:46;;;;;;;7.97;2.10;;;8.00;99.90;;;;;;5028138;28;20056;-64
2023/04/11 08:41:13;;;;;;;12.10;2.92;;;7.80;99.90;;;;;;5027757;28;20076;-61
2023/04/11 08:43:39;;;;;;;9.77;2.47;;;7.80;99.90;;;;;;5027204;28;20049;-61
2023/04/11 08:46:08;;;;;;;11.60;2.97;;;8.20;99.90;;;;;;5025282;28;20037;-56
2023/04/11 08:48:34;;;;;;;13.20;3.53;;;8.20;99.90;;;;;;5007712;28;20061;-60
2023/04/11 08:51:01;;;;;;;10.98;2.60;;;8.40;99.90;;;;;;5007551;28;20117;-61
2023/04/11 08:53:27;;;;;;;12.07;2.88;;;8.60;99.90;;;;;;5008070;28;20390;-65
2023/04/11 08:55:53;;;;;;;12.00;2.80;;;8.80;99.90;;;;;;5007433;28;20463;-59
2023/04/11 08:58:19;;;;;;;12.38;2.65;;;8.90;99.90;;;;;;5014813;28;20033;-62
2023/04/11 09:00:45;;;;;;;12.25;3.05;;;9.00;99.90;;;;;;5027607;28;20178;-63
2023/04/11 09:03:14;;;;;;;14.90;3.15;;;9.20;99.90;;;;;;5027513;28;20041;-62
2023/04/11 09:05:43;;;;;;;10.15;2.70;;;9.20;99.90;;;;;;5025225;28;20065;-59
2023/04/11 09:08:11;;;;;;;13.23;2.83;;;9.40;99.90;;;;;;5026941;28;20072;-62
2023/04/11 09:10:38;;;;;;;11.75;2.83;;;9.70;99.90;;;;;;5026543;28;20046;-59
2023/04/11 09:13:21;;;;;;;12.73;2.95;;;9.90;99.90;;;;;;5026258;28;20049;-65
2023/04/11 09:16:01;;;;;;;7.60;2.05;;;10.00;99.90;;;;;;5027257;28;20041;-63
2023/04/11 09:18:35;;;;;;;11.65;2.92;;;10.20;99.90;;;;;;5026632;28;20435;-57
2023/04/11 09:21:03;;;;;;;7.78;1.98;;;10.10;99.90;;;;;;5025528;28;20052;-61
2023/04/11 09:23:29;;;;;;;5.43;1.50;;;10.00;99.90;;;;;;5027198;28;20613;-66
2023/04/11 09:25:55;;;;;;;9.52;2.20;;;9.90;99.90;;;;;;5026537;28;20037;-60
2023/04/11 09:28:22;;;;;;;8.45;1.70;;;9.90;99.90;;;;;;5026518;28;20052;-64
2023/04/11 09:30:52;;;;;;;5.85;1.40;;;9.90;99.90;;;;;;5026113;28;20149;-60
2023/04/11 09:33:28;;;;;;;3.92;0.90;;;9.70;99.90;;;;;;5026647;28;20045;-55
2023/04/11 09:35:55;;;;;;;6.35;1.30;;;9.10;99.90;;;;;;5025702;28;20053;-62
2023/04/11 09:38:30;;;;;;;4.63;1.27;;;8.90;99.90;;;;;;5026860;28;20057;-63
2023/04/11 09:40:56;;;;;;;4.60;1.27;;;8.60;99.90;;;;;;5026502;28;20080;-65
2023/04/11 09:43:22;;;;;;;7.38;1.75;;;8.90;99.90;;;;;;5026023;28;20108;-66
2023/04/11 09:45:49;;;;;;;6.68;1.77;;;9.00;99.90;;;;;;5026380;28;20106;-53
2023/04/11 09:48:16;;;;;;;9.57;2.30;;;9.20;99.90;;;;;;5026116;28;20103;-54
2023/04/11 09:50:42;;;;;;;10.27;2.35;;;9.20;99.90;;;;;;5026630;28;20047;-59
2023/04/11 09:53:09;;;;;;;8.10;1.98;;;9.00;99.90;;;;;;5025071;28;20092;-64
2023/04/11 09:55:37;;;;;;;6.82;1.98;;;9.00;99.90;;;;;;5024409;28;20075;-57
2023/04/11 09:58:06;;;;;;;8.40;2.15;;;9.00;99.90;;;;;;5018001;28;20051;-65
2023/04/11 10:00:31;;;;;;;9.13;2.10;;;9.10;99.90;;;;;;5010637;28;20042;-60
2023/04/11 10:02:57;;;;;;;2.97;1.10;;;9.60;99.90;;;;;;5006221;28;20049;-64
2023/04/11 10:05:28;;;;;;;4.90;1.23;;;10.10;99.90;;;;;;5006395;28;20139;-52
2023/04/11 10:08:16;;;;;;;6.85;1.60;;;10.50;99.90;;;;;;5006319;28;20119;-62
2023/04/11 10:10:43;;;;;;;5.25;1.40;;;10.70;99.90;;;;;;5008729;28;20679;-64
2023/04/11 10:13:41;;;;;;;6.53;1.00;;;10.90;99.90;;;;;;5005638;28;20555;-66
2023/04/11 10:16:18;;;;;;;5.22;1.27;;;10.80;99.90;;;;;;5017896;28;20045;-64
2023/04/11 10:18:52;;;;;;;8.70;1.65;;;10.70;99.90;;;;;;5025877;28;20388;-65
2023/04/11 10:21:31;;;;;;;10.05;1.83;;;10.90;99.90;;;;;;5026020;28;20045;-52
2023/04/11 10:24:19;;;;;;;9.40;1.75;;;11.20;99.90;;;;;;5013153;28;20440;-66
2023/04/11 10:26:53;;;;;;;7.70;1.70;;;11.30;99.90;;;;;;5016676;28;20443;-64
2023/04/11 10:32:12;;;;;;;10.55;1.85;;;11.30;99.90;;;;;;5005782;28;20651;-62
2023/04/11 10:34:40;;;;;;;5.75;1.65;;;10.80;99.90;;;;;;5004965;28;20076;-65
2023/04/11 10:37:07;;;;;;;9.38;1.65;;;10.30;99.90;;;;;;5005392;28;20103;-67
2023/04/11 10:40:07;;;;;;;6.78;1.58;;;9.70;99.90;;;;;;5006027;28;20416;-67
2023/04/11 10:42:37;;;;;;;8.82;1.90;;;9.40;99.90;;;;;;5005005;28;20129;-62
2023/04/11 10:45:28;;;;;;;6.18;1.50;;;9.20;99.90;;;;;;5004278;28;20046;-61
2023/04/11 10:48:10;;;;;;;5.18;1.35;;;8.90;99.90;;;;;;5005330;28;20108;-65
2023/04/11 10:50:39;;;;;;;8.63;1.52;;;8.70;99.90;;;;;;5005339;28;20085;-60
2023/04/11 10:53:08;;;;;;;5.68;1.52;;;8.60;99.90;;;;;;5006194;28;20177;-62
2023/04/11 10:55:48;;;;;;;6.95;1.73;;;8.50;99.90;;;;;;5005512;28;20049;-61
2023/04/11 10:58:18;;;;;;;5.95;1.63;;;8.40;99.90;;;;;;5013030;28;20060;-62
2023/04/11 11:00:50;;;;;;;3.13;1.08;;;8.20;99.90;;;;;;5006869;28;20057;-64
2023/04/11 11:03:20;;;;;;;6.30;1.27;;;7.90;99.90;;;;;;5005094;28;20054;-62
2023/04/11 11:05:55;;;;;;;4.13;1.05;;;7.80;99.90;;;;;;5005032;28;20111;-66
2023/04/11 11:08:31;;;;;;;3.38;0.70;;;7.60;99.90;;;;;;5005627;28;20053;-58
2023/04/11 11:11:05;;;;;;;2.53;0.77;;;7.30;99.90;;;;;;5005403;28;20675;-61
2023/04/11 11:13:43;;;;;;;3.80;0.95;;;7.10;99.90;;;;;;5005040;28;20181;-62
2023/04/11 11:16:16;;;;;;;4.05;0.60;;;7.00;99.90;;;;;;5005394;28;20038;-55
2023/04/11 11:19:01;;;;;;;2.22;0.80;;;7.10;99.90;;;;;;5020608;28;20133;-57
2023/04/11 11:21:28;;;;;;;2.15;0.75;;;7.00;99.90;;;;;;5007185;28;20085;-52
2023/04/11 11:23:59;;;;;;;4.90;1.20;;;7.00;99.90;;;;;;5021776;28;20068;-64
2023/04/11 11:26:42;;;;;;;5.60;1.45;;;7.10;99.90;;;;;;5029311;28;20038;-63
2023/04/11 11:29:08;;;;;;;4.20;1.80;;;7.10;99.90;;;;;;5029016;28;20111;-64
2023/04/11 11:31:35;;;;;;;8.95;1.65;;;7.20;99.90;;;;;;5029089;28;20033;-62
2023/04/11 11:34:01;;;;;;;4.75;1.50;;;7.40;99.90;;;;;;5029291;28;20080;-61
2023/04/11 11:36:28;;;;;;;5.70;1.50;;;7.70;99.90;;;;;;5029214;28;20084;-61
2023/04/11 11:38:53;;;;;;;7.88;1.40;;;8.10;99.90;;;;;;5029144;28;20120;-56
2023/04/11 11:41:19;;;;;;;4.43;1.17;;;8.50;99.90;;;;;;5017239;28;20425;-66
2023/04/11 11:43:45;;;;;;;5.93;1.30;;;8.60;99.90;;;;;;5013984;28;20045;-55
2023/04/11 11:46:13;;;;;;;2.33;0.60;;;8.60;99.90;;;;;;5029128;28;20516;-64
2023/04/11 11:48:56;;;;;;;3.65;0.90;;;8.60;99.90;;;;;;5028860;28;20042;-63
2023/04/11 11:51:21;;;;;;;3.50;0.77;;;8.50;99.90;;;;;;5029134;28;20052;-64
2023/04/11 11:54:07;;;;;;;5.07;0.85;;;8.50;99.90;;;;;;5014034;28;20443;-62
2023/04/11 11:56:37;;;;;;;2.72;0.68;;;8.60;99.90;;;;;;5008019;28;20053;-56
2023/04/11 11:59:06;;;;;;;5.10;1.05;;;8.50;99.90;;;;;;5023944;28;20042;-64
2023/04/11 12:01:33;;;;;;;5.47;1.05;;;8.60;99.90;;;;;;5007750;28;20046;-52
2023/04/11 12:04:00;;;;;;;3.40;1.00;;;8.70;99.90;;;;;;5008670;28;20416;-64
2023/04/11 12:06:32;;;;;;;7.50;1.50;;;9.00;99.90;;;;;;5008560;28;20054;-67
2023/04/11 12:09:16;;;;;;;6.63;1.70;;;9.20;99.90;;;;;;5008516;28;20053;-63
2023/04/11 12:11:43;;;;;;;4.80;1.42;;;9.60;99.90;;;;;;5008665;28;20623;-61
2023/04/11 12:14:09;;;;;;;2.50;0.90;;;9.90;99.90;;;;;;5008909;28;20409;-65
2023/04/11 12:16:38;;;;;;;8.45;1.27;;;10.20;99.90;;;;;;5009021;28;20111;-59
2023/04/11 12:19:04;;;;;;;4.80;1.00;;;10.30;99.90;;;;;;5008566;28;20080;-61
2023/04/11 12:21:30;;;;;;;4.55;1.05;;;10.30;99.90;;;;;;5008780;28;20129;-60
2023/04/11 12:23:56;;;;;;;6.18;1.02;;;10.10;99.90;;;;;;5020698;28;20048;-67
2023/04/11 12:26:23;;;;;;;4.30;1.02;;;10.00;99.90;;;;;;5028030;28;20045;-68
2023/04/11 12:28:49;;;;;;;5.35;1.40;;;10.00;99.90;;;;;;5028589;28;20049;-64
2023/04/11 12:31:16;;;;;;;8.60;1.55;;;10.00;99.90;;;;;;5028253;28;20068;-62
2023/04/11 12:33:42;;;;;;;7.95;1.95;;;10.10;99.90;;;;;;5025572;28;20045;-59
2023/04/11 12:36:08;;;;;;;12.35;2.03;;;10.30;99.90;;;;;;5021983;28;20125;-64
2023/04/11 12:38:34;;;;;;;10.27;1.92;;;10.50;99.90;;;;;;5017192;28;20549;-59
2023/04/11 12:41:00;;;;;;;6.53;1.92;;;10.80;99.90;;;;;;5018688;28;20595;-60
2023/04/11 12:43:26;;;;;;;7.57;1.98;;;10.90;99.90;;;;;;5015372;28;20042;-52
2023/04/11 12:45:52;;;;;;;7.78;1.42;;;11.10;99.90;;;;;;5018444;28;20504;-65
2023/04/11 12:48:18;;;;;;;10.57;2.22;;;11.10;99.90;;;;;;5014018;28;20046;-66
2023/04/11 12:50:44;;;;;;;7.63;1.30;;;11.00;99.90;;;;;;5024909;28;20384;-63
2023/04/11 12:53:09;;;;;;;6.10;0.95;;;10.80;99.90;;;;;;5027887;28;20045;-59
2023/04/11 12:55:35;;;;;;;7.90;2.30;;;10.60;99.90;;;;;;5027957;28;20060;-66
2023/04/11 12:58:01;;;;;;;7.97;2.20;;;10.40;99.90;;;;;;5020639;28;20132;-49
2023/04/11 13:00:27;;;;;;;10.32;2.22;;;10.30;99.90;;;;;;5012271;28;20046;-63